createdAt,value
2022-11-17T00:01:52.258Z,24.40
2022-11-17T00:04:19.406Z,29.52
2022-11-17T00:06:52.346Z,29.38
2022-11-17T00:09:19.553Z,22.83
2022-11-17T00:12:07.019Z,27.20
2022-11-17T00:14:40.715Z,21.55
2022-11-17T00:17:12.422Z,31.40
2022-11-17T00:19:58.390Z,20.67
2022-11-17T00:22:25.844Z,20.02
2022-11-17T00:24:52.905Z,23.80
2022-11-17T00:27:22.962Z,22.23
2022-11-17T00:29:50.352Z,28.73
2022-11-17T00:32:37.967Z,26.75
2022-11-17T00:35:06.631Z,27.73
2022-11-17T00:37:37.365Z,21.35
2022-11-17T00:42:51.653Z,29.90
2022-11-17T00:45:21.793Z,23.48
2022-11-17T00:47:48.749Z,27.98
2022-11-17T00:50:15.852Z,23.38
2022-11-17T00:52:42.932Z,23.73
2022-11-17T00:55:10.087Z,19.27
2022-11-17T00:57:57.907Z,24.00
2022-11-17T01:00:43.258Z,25.10
2022-11-17T01:03:10.292Z,23.83
2022-11-17T01:05:49.038Z,22.88
2022-11-17T01:08:16.123Z,25.95
2022-11-17T01:10:43.396Z,24.85
2022-11-17T01:13:10.489Z,21.58
2022-11-17T01:15:37.591Z,23.58
2022-11-17T01:18:04.716Z,27.30
2022-11-17T01:20:31.780Z,26.05
2022-11-17T01:22:58.839Z,22.77
2022-11-17T01:29:04.491Z,21.00
2022-11-17T01:32:06.099Z,21.83
2022-11-17T01:34:47.962Z,22.92
2022-11-17T01:37:20.764Z,22.63
2022-11-17T01:39:51.511Z,29.48
2022-11-17T01:42:33.642Z,18.02
2022-11-17T01:45:20.225Z,25.80
2022-11-17T01:48:09.174Z,21.38
2022-11-17T01:50:49.385Z,30.65
2022-11-17T01:53:19.856Z,24.52
2022-11-17T01:56:05.602Z,23.95
2022-11-17T01:58:41.247Z,28.20
2022-11-17T02:01:11.207Z,27.10
2022-11-17T02:03:45.579Z,32.58
2022-11-17T02:06:33.405Z,25.80
2022-11-17T02:09:05.580Z,31.58
2022-11-17T02:11:38.538Z,28.58
2022-11-17T02:14:12.450Z,30.80
2022-11-17T02:16:39.416Z,34.10
2022-11-17T02:19:07.596Z,31.23
2022-11-17T02:22:24.062Z,34.15
2022-11-17T02:25:27.439Z,35.90
2022-11-17T02:28:12.481Z,29.75
2022-11-17T02:31:07.190Z,30.23
2022-11-17T02:33:37.702Z,33.40
2022-11-17T02:36:14.315Z,34.53
2022-11-17T02:39:04.925Z,31.25
2022-11-17T02:42:03.298Z,29.25
2022-11-17T02:45:00.088Z,32.30
2022-11-17T02:47:39.374Z,36.83
2022-11-17T02:50:09.554Z,35.20
2022-11-17T02:52:36.740Z,37.38
2022-11-17T02:55:22.949Z,35.25
2022-11-17T02:58:23.847Z,42.85
2022-11-17T03:01:21.008Z,35.00
2022-11-17T03:04:17.276Z,38.17
2022-11-17T03:07:00.430Z,35.58
2022-11-17T03:09:49.065Z,40.38
2022-11-17T03:12:31.208Z,39.28
2022-11-17T03:15:34.824Z,34.35
2022-11-17T03:18:11.165Z,41.78
2022-11-17T03:20:44.198Z,38.45
2022-11-17T03:23:17.791Z,40.42
2022-11-17T03:25:49.405Z,39.70
2022-11-17T03:28:56.119Z,41.53
2022-11-17T03:31:34.016Z,36.22
2022-11-17T03:34:05.322Z,38.15
2022-11-17T03:36:37.223Z,38.15
2022-11-17T03:39:10.541Z,42.80
2022-11-17T03:41:43.496Z,42.63
2022-11-17T03:44:12.591Z,37.17
2022-11-17T03:46:44.115Z,41.28
2022-11-17T03:49:19.779Z,43.15
2022-11-17T03:51:47.294Z,42.67
2022-11-17T03:54:15.265Z,42.72
2022-11-17T03:56:45.438Z,39.28
2022-11-17T03:59:43.277Z,38.80
2022-11-17T04:02:17.569Z,45.63
2022-11-17T04:05:03.067Z,40.15
2022-11-17T04:07:31.215Z,40.60
2022-11-17T04:09:58.316Z,41.42
2022-11-17T04:12:44.160Z,44.80
2022-11-17T04:15:30.903Z,43.38
2022-11-17T04:17:58.161Z,44.50
2022-11-17T04:20:25.813Z,47.67
2022-11-17T04:23:09.486Z,38.40
2022-11-17T04:25:56.775Z,41.40
2022-11-17T04:28:37.339Z,39.88
2022-11-17T04:31:15.167Z,46.80
2022-11-17T04:33:44.482Z,38.28
2022-11-17T04:36:14.356Z,44.70
2022-11-17T04:38:45.985Z,39.50
2022-11-17T04:41:33.269Z,36.03
2022-11-17T04:44:01.417Z,40.28
2022-11-17T04:46:30.553Z,44.35
2022-11-17T04:48:58.617Z,47.25
2022-11-17T04:51:26.696Z,44.08
2022-11-17T04:53:54.026Z,43.80
2022-11-17T04:56:22.510Z,35.85
2022-11-17T04:58:50.173Z,44.30
2022-11-17T05:01:18.856Z,43.35
2022-11-17T05:03:57.394Z,39.88
2022-11-17T05:06:25.555Z,47.28
2022-11-17T05:08:56.705Z,40.78
2022-11-17T05:11:46.721Z,39.85
2022-11-17T05:14:15.941Z,40.97
2022-11-17T05:17:07.498Z,37.22
2022-11-17T05:19:47.155Z,40.97
2022-11-17T05:22:35.953Z,43.25
2022-11-17T05:25:04.553Z,39.80
2022-11-17T05:27:31.629Z,41.67
2022-11-17T05:29:58.470Z,42.00
2022-11-17T05:32:25.408Z,128.75
2022-11-17T05:34:52.304Z,49.97
2022-11-17T05:37:19.303Z,44.50
2022-11-17T05:39:46.125Z,42.38
2022-11-17T05:42:12.973Z,40.17
2022-11-17T05:44:40.133Z,40.67
2022-11-17T05:47:07.305Z,44.65
2022-11-17T05:49:34.179Z,42.08
2022-11-17T05:52:01.043Z,50.80
2022-11-17T05:54:28.001Z,42.88
2022-11-17T05:57:07.072Z,53.25
2022-11-17T05:59:49.320Z,43.95
2022-11-17T06:02:29.154Z,47.08
2022-11-17T06:04:55.992Z,45.50
2022-11-17T06:07:23.096Z,47.67
2022-11-17T06:09:52.239Z,49.05
2022-11-17T06:12:19.180Z,50.15
2022-11-17T06:14:46.060Z,54.67
2022-11-17T06:17:23.198Z,48.80
2022-11-17T06:20:01.178Z,54.40
2022-11-17T06:22:31.944Z,48.47
2022-11-17T06:24:59.746Z,48.47
2022-11-17T06:27:27.100Z,47.30
2022-11-17T06:29:55.837Z,45.80
2022-11-17T06:32:23.058Z,61.72
2022-11-17T06:34:55.183Z,35.30
2022-11-17T06:37:22.383Z,40.63
2022-11-17T06:39:49.424Z,43.80
2022-11-17T06:42:16.295Z,56.97
2022-11-17T06:44:43.632Z,46.95
2022-11-17T06:47:10.542Z,50.95
2022-11-17T06:49:37.388Z,48.45
2022-11-17T06:52:04.235Z,51.15
2022-11-17T06:54:31.123Z,45.17
2022-11-17T06:56:58.479Z,55.15
2022-11-17T06:59:25.471Z,52.95
2022-11-17T07:01:52.591Z,59.75
2022-11-17T07:04:19.506Z,64.90
2022-11-17T07:06:46.436Z,67.22
2022-11-17T07:09:13.368Z,72.85
2022-11-17T07:11:40.289Z,63.22
2022-11-17T07:14:07.347Z,64.90
2022-11-17T07:16:34.319Z,59.83
2022-11-17T07:19:03.712Z,69.68
2022-11-17T07:21:31.284Z,69.80
2022-11-17T07:23:58.253Z,70.30
2022-11-17T07:26:25.309Z,70.28
2022-11-17T07:28:52.227Z,66.72
2022-11-17T07:31:19.180Z,64.32
2022-11-17T07:33:46.231Z,67.68
2022-11-17T07:36:15.239Z,72.22
2022-11-17T07:38:42.829Z,66.25
2022-11-17T07:41:13.311Z,74.57
2022-11-17T07:43:40.536Z,68.50
2022-11-17T07:46:11.326Z,71.63
2022-11-17T07:48:38.642Z,72.18
2022-11-17T07:51:06.730Z,71.07
2022-11-17T07:53:35.196Z,72.70
2022-11-17T07:56:10.007Z,67.05
2022-11-17T07:58:38.329Z,70.65
2022-11-17T08:01:16.978Z,74.50
2022-11-17T08:03:44.850Z,64.47
2022-11-17T08:06:11.943Z,62.97
2022-11-17T08:08:39.742Z,60.28
2022-11-17T08:11:09.390Z,69.13
2022-11-17T08:13:37.355Z,68.13
2022-11-17T08:16:05.338Z,66.30
2022-11-17T08:18:32.910Z,51.80
2022-11-17T08:21:08.646Z,59.42
2022-11-17T08:23:36.064Z,55.15
2022-11-17T08:26:03.979Z,54.22
2022-11-17T08:28:31.330Z,51.67
2022-11-17T08:31:00.942Z,45.25
2022-11-17T08:33:28.493Z,40.87
2022-11-17T08:36:00.230Z,44.90
2022-11-17T08:38:29.366Z,41.03
2022-11-17T08:40:57.736Z,41.53
2022-11-17T08:43:25.234Z,38.75
2022-11-17T08:45:52.113Z,43.80
2022-11-17T08:48:19.400Z,41.80
2022-11-17T08:50:46.398Z,45.92
2022-11-17T08:53:19.359Z,39.28
2022-11-17T08:55:46.377Z,38.97
2022-11-17T08:58:13.473Z,40.92
2022-11-17T09:00:42.186Z,42.28
2022-11-17T09:03:11.176Z,37.35
2022-11-17T09:05:43.944Z,40.75
2022-11-17T09:08:44.997Z,45.45
2022-11-17T09:11:10.243Z,54.20
2022-11-17T09:13:38.355Z,52.20
2022-11-17T09:16:08.218Z,59.33
2022-11-17T09:18:37.202Z,58.22
2022-11-17T09:21:09.968Z,51.67
2022-11-17T09:23:37.308Z,47.22
2022-11-17T09:26:12.781Z,45.78
2022-11-17T09:28:40.300Z,43.55
2022-11-17T09:31:13.072Z,49.60
2022-11-17T09:33:40.278Z,39.88
2022-11-17T09:36:07.781Z,39.47
2022-11-17T09:38:36.564Z,31.40
2022-11-17T09:41:41.372Z,32.42
2022-11-17T09:44:33.029Z,31.88
2022-11-17T09:47:10.975Z,33.28
2022-11-17T09:50:08.736Z,30.98
2022-11-17T09:53:12.860Z,23.73
2022-11-17T09:55:53.937Z,25.58
2022-11-17T09:58:43.534Z,21.67
2022-11-17T10:01:18.877Z,21.58
2022-11-17T10:03:48.052Z,21.50
2022-11-17T10:06:20.555Z,20.13
2022-11-17T10:08:47.605Z,23.98
2022-11-17T10:11:32.294Z,19.55
2022-11-17T10:14:02.358Z,19.98
2022-11-17T10:16:30.094Z,18.70
2022-11-17T10:18:57.513Z,18.35
2022-11-17T10:21:24.726Z,16.73
2022-11-17T10:23:59.043Z,15.93
2022-11-17T10:26:26.534Z,18.40
2022-11-17T10:29:14.123Z,18.63
2022-11-17T10:31:43.946Z,19.35
2022-11-17T10:34:12.776Z,20.55
2022-11-17T10:36:48.474Z,15.80
2022-11-17T10:39:34.058Z,14.18
2022-11-17T10:42:12.537Z,16.10
2022-11-17T10:44:42.669Z,17.67
2022-11-17T10:47:30.480Z,13.60
2022-11-17T10:50:25.997Z,17.52
2022-11-17T10:52:55.860Z,17.63
2022-11-17T10:55:25.907Z,17.55
2022-11-17T10:58:01.742Z,14.85
2022-11-17T11:00:35.411Z,18.50
2022-11-17T11:03:20.633Z,15.57
2022-11-17T11:06:09.837Z,15.00
2022-11-17T11:08:49.634Z,12.93
2022-11-17T11:11:32.044Z,12.80
2022-11-17T11:14:18.748Z,13.32
2022-11-17T11:16:50.743Z,10.25
2022-11-17T11:19:20.174Z,12.20
2022-11-17T11:21:49.683Z,13.82
2022-11-17T11:24:29.965Z,11.90
2022-11-17T11:27:18.264Z,10.18
2022-11-17T11:30:11.713Z,13.88
2022-11-17T11:32:57.355Z,9.02
2022-11-17T11:35:36.097Z,11.18
2022-11-17T11:38:28.059Z,11.30
2022-11-17T11:41:12.765Z,11.90
2022-11-17T11:43:59.999Z,12.63
2022-11-17T11:46:56.101Z,10.80
2022-11-17T11:49:41.511Z,11.32
2022-11-17T11:52:16.397Z,17.50
2022-11-17T11:55:05.924Z,12.55
2022-11-17T11:57:40.921Z,12.10
2022-11-17T12:00:15.529Z,12.98
2022-11-17T12:02:51.762Z,13.30
2022-11-17T12:05:27.439Z,14.15
2022-11-17T12:08:18.163Z,11.85
2022-11-17T12:13:25.287Z,11.57
2022-11-17T12:15:53.968Z,10.77
2022-11-17T12:18:20.808Z,20.05
2022-11-17T12:21:04.826Z,14.77
2022-11-17T12:23:46.732Z,18.17
2022-11-17T12:26:22.597Z,15.82
2022-11-17T12:28:49.488Z,11.95
2022-11-17T12:31:43.140Z,20.02
2022-11-17T12:34:26.821Z,12.95
2022-11-17T12:37:15.283Z,12.05
2022-11-17T12:39:52.579Z,12.90
2022-11-17T12:42:19.546Z,11.52
2022-11-17T12:44:46.450Z,10.60
2022-11-17T12:47:13.424Z,11.70
2022-11-17T12:50:17.578Z,10.75
2022-11-17T12:53:15.033Z,9.95
2022-11-17T12:56:10.020Z,10.38
2022-11-17T12:58:48.735Z,10.50
2022-11-17T13:01:40.571Z,11.45
2022-11-17T13:04:20.081Z,11.07
2022-11-17T13:07:17.949Z,16.25
2022-11-17T13:09:44.999Z,11.95
2022-11-17T13:12:11.879Z,10.32
2022-11-17T13:14:56.177Z,13.30
2022-11-17T13:17:28.823Z,13.52
2022-11-17T13:20:05.430Z,14.48
2022-11-17T13:22:33.587Z,10.48
2022-11-17T13:25:21.183Z,11.30
2022-11-17T13:27:54.948Z,10.40
2022-11-17T13:30:27.738Z,8.00
2022-11-17T13:35:36.124Z,9.38
2022-11-17T13:38:12.186Z,10.35
2022-11-17T13:40:40.842Z,10.70
2022-11-17T13:43:12.221Z,8.27
2022-11-17T13:45:39.204Z,8.82
2022-11-17T13:48:06.541Z,11.75
2022-11-17T13:50:37.303Z,8.13
2022-11-17T13:53:20.172Z,8.98
2022-11-17T13:55:47.686Z,8.57
2022-11-17T13:58:38.676Z,8.38
2022-11-17T14:01:05.735Z,12.57
2022-11-17T14:03:37.308Z,12.45
2022-11-17T14:06:06.817Z,12.05
2022-11-17T14:08:35.793Z,10.15
2022-11-17T14:11:16.385Z,11.80
2022-11-17T14:16:28.667Z,12.68
2022-11-17T14:19:03.884Z,12.40
2022-11-17T14:21:32.218Z,12.20
2022-11-17T14:24:12.957Z,10.38
2022-11-17T14:26:44.883Z,7.63
2022-11-17T14:29:13.655Z,10.70
2022-11-17T14:31:40.580Z,11.27
2022-11-17T14:34:07.447Z,12.23
2022-11-17T14:36:36.207Z,10.60
2022-11-17T14:39:03.428Z,11.57
2022-11-17T14:41:30.567Z,8.93
2022-11-17T14:43:58.172Z,10.02
2022-11-17T14:46:26.991Z,11.55
2022-11-17T14:48:55.487Z,12.80
2022-11-17T14:51:22.878Z,8.00
2022-11-17T14:53:49.958Z,10.45
2022-11-17T14:56:19.878Z,14.45
2022-11-17T14:58:48.364Z,13.10
2022-11-17T15:01:20.015Z,10.65
2022-11-17T15:03:47.238Z,18.42
2022-11-17T15:06:19.521Z,9.95
2022-11-17T15:08:48.231Z,8.93
2022-11-17T15:11:19.380Z,10.80
2022-11-17T15:13:46.298Z,11.98
2022-11-17T15:16:13.672Z,8.95
2022-11-17T15:18:40.756Z,11.52
2022-11-17T15:21:10.588Z,13.68
2022-11-17T15:23:39.969Z,11.98
2022-11-17T15:26:09.189Z,12.25
2022-11-17T15:28:36.399Z,9.55
2022-11-17T15:31:10.816Z,9.25
2022-11-17T15:33:40.661Z,9.55
2022-11-17T15:36:09.391Z,12.05
2022-11-17T15:38:37.743Z,13.10
2022-11-17T15:41:05.850Z,10.98
2022-11-17T15:43:38.097Z,9.50
2022-11-17T15:46:13.540Z,10.45
2022-11-17T15:48:43.247Z,13.48
2022-11-17T15:51:18.493Z,11.73
2022-11-17T15:53:46.942Z,12.05
2022-11-17T15:56:21.021Z,14.93
2022-11-17T15:58:54.124Z,12.55
2022-11-17T16:01:24.115Z,11.38
2022-11-17T16:03:54.521Z,10.65
2022-11-17T16:06:22.013Z,10.77
2022-11-17T16:08:49.396Z,11.02
2022-11-17T16:11:16.527Z,17.15
2022-11-17T16:13:44.021Z,11.48
2022-11-17T16:16:13.540Z,8.18
2022-11-17T16:18:41.177Z,10.63
2022-11-17T16:21:11.253Z,9.05
2022-11-17T16:23:41.630Z,12.13
2022-11-17T16:26:10.630Z,11.68
2022-11-17T16:28:38.746Z,9.10
2022-11-17T16:31:13.811Z,9.18
2022-11-17T16:33:41.172Z,13.52
2022-11-17T16:36:08.753Z,26.02
2022-11-17T16:38:35.775Z,10.77
2022-11-17T16:41:02.806Z,10.57
2022-11-17T16:43:30.133Z,11.70
2022-11-17T16:45:57.149Z,8.70
2022-11-17T16:48:24.580Z,10.30
2022-11-17T16:50:51.663Z,11.30
2022-11-17T16:53:18.805Z,10.52
2022-11-17T16:55:45.933Z,8.32
2022-11-17T16:58:13.021Z,9.70
2022-11-17T17:00:40.594Z,11.13
2022-11-17T17:03:07.690Z,14.60
2022-11-17T17:05:39.548Z,10.90
2022-11-17T17:08:06.776Z,13.00
2022-11-17T17:10:34.087Z,10.02
2022-11-17T17:13:01.144Z,11.70
2022-11-17T17:15:29.159Z,12.48
2022-11-17T17:17:56.144Z,12.35
2022-11-17T17:20:23.474Z,8.82
2022-11-17T17:22:50.595Z,9.50
2022-11-17T17:25:17.613Z,9.20
2022-11-17T17:27:44.794Z,11.02
2022-11-17T17:30:12.371Z,11.75
2022-11-17T17:32:39.433Z,11.13
2022-11-17T17:35:07.048Z,10.38
2022-11-17T17:37:34.133Z,10.52
2022-11-17T17:40:01.810Z,9.60
2022-11-17T17:42:30.775Z,10.02
2022-11-17T17:44:57.702Z,9.35
2022-11-17T17:47:24.851Z,7.38
2022-11-17T17:49:51.974Z,16.60
2022-11-17T17:52:20.382Z,9.30
2022-11-17T17:54:47.549Z,9.68
2022-11-17T17:57:16.921Z,10.05
2022-11-17T17:59:45.112Z,9.50
2022-11-17T18:02:12.345Z,11.85
2022-11-17T18:04:39.356Z,9.45
2022-11-17T18:07:06.577Z,9.98
2022-11-17T18:09:33.713Z,11.27
2022-11-17T18:12:00.786Z,11.45
2022-11-17T18:14:28.031Z,10.32
2022-11-17T18:16:55.143Z,9.35
2022-11-17T18:19:26.951Z,9.73
2022-11-17T18:21:57.051Z,10.43
2022-11-17T18:24:24.261Z,13.20
2022-11-17T18:26:51.407Z,9.43
2022-11-17T18:29:19.720Z,10.63
2022-11-17T18:31:47.642Z,8.25
2022-11-17T18:34:23.114Z,9.50
2022-11-17T18:36:51.752Z,8.75
2022-11-17T18:39:19.607Z,9.30
2022-11-17T18:41:47.300Z,13.45
2022-11-17T18:44:19.639Z,11.43
2022-11-17T18:46:48.498Z,7.25
2022-11-17T18:49:16.109Z,18.15
2022-11-17T18:51:43.390Z,8.55
2022-11-17T18:54:12.424Z,11.32
2022-11-17T18:56:40.177Z,10.68
2022-11-17T18:59:11.599Z,10.68
2022-11-17T19:01:41.610Z,9.75
2022-11-17T19:04:11.819Z,13.65
2022-11-17T19:06:38.890Z,10.77
2022-11-17T19:09:06.263Z,13.75
2022-11-17T19:11:34.669Z,9.40
2022-11-17T19:14:03.156Z,10.10
2022-11-17T19:16:31.919Z,11.15
2022-11-17T19:18:59.664Z,11.73
2022-11-17T19:21:28.975Z,12.38
2022-11-17T19:23:59.303Z,11.77
2022-11-17T19:26:35.048Z,10.70
2022-11-17T19:29:05.327Z,11.52
2022-11-17T19:31:33.747Z,15.07
2022-11-17T19:34:00.885Z,11.07
2022-11-17T19:36:30.606Z,11.18
2022-11-17T19:38:59.605Z,14.52
2022-11-17T19:41:26.616Z,10.95
2022-11-17T19:43:58.197Z,12.63
2022-11-17T19:46:26.810Z,15.02
2022-11-17T19:48:55.687Z,13.80
2022-11-17T19:51:27.247Z,16.05
2022-11-17T19:53:56.152Z,13.13
2022-11-17T19:56:25.172Z,12.88
2022-11-17T19:58:53.935Z,11.32
2022-11-17T20:01:26.161Z,17.30
2022-11-17T20:03:54.038Z,11.77
2022-11-17T20:06:24.159Z,14.60
2022-11-17T20:08:51.333Z,12.45
2022-11-17T20:11:21.325Z,15.85
2022-11-17T20:13:48.836Z,14.20
2022-11-17T20:16:26.707Z,12.80
2022-11-17T20:18:58.998Z,13.32
2022-11-17T20:21:27.701Z,11.50
2022-11-17T20:23:55.929Z,12.18
2022-11-17T20:26:29.302Z,10.98
2022-11-17T20:28:57.900Z,10.80
2022-11-17T20:31:28.527Z,17.83
2022-11-17T20:33:57.824Z,12.35
2022-11-17T20:36:27.996Z,17.88
2022-11-17T20:39:00.636Z,13.95
2022-11-17T20:41:28.207Z,12.13
2022-11-17T20:43:56.838Z,21.48
2022-11-17T20:46:24.615Z,16.75
2022-11-17T20:48:52.354Z,14.35
2022-11-17T20:51:24.113Z,11.90
2022-11-17T20:53:51.351Z,12.05
2022-11-17T20:56:19.955Z,12.05
2022-11-17T20:58:47.551Z,11.18
2022-11-17T21:01:17.436Z,12.82
2022-11-17T21:03:45.727Z,12.13
2022-11-17T21:06:13.969Z,15.02
2022-11-17T21:08:42.516Z,11.50
2022-11-17T21:11:32.078Z,12.85
2022-11-17T21:13:59.749Z,13.67
2022-11-17T21:16:27.031Z,12.77
2022-11-17T21:18:54.130Z,10.60
2022-11-17T21:21:21.236Z,13.60
2022-11-17T21:23:48.345Z,12.98
2022-11-17T21:26:19.166Z,15.68
2022-11-17T21:28:47.320Z,16.45
2022-11-17T21:31:32.658Z,12.68
2022-11-17T21:34:04.616Z,14.18
2022-11-17T21:36:33.594Z,12.93
2022-11-17T21:39:00.874Z,16.30
2022-11-17T21:41:30.751Z,16.02
2022-11-17T21:44:02.784Z,13.35
2022-11-17T21:46:33.162Z,14.27
2022-11-17T21:51:33.674Z,14.30
2022-11-17T21:54:03.491Z,13.90
2022-11-17T21:56:32.193Z,14.10
2022-11-17T21:59:03.258Z,10.68
2022-11-17T22:01:31.110Z,11.82
2022-11-17T22:03:58.654Z,10.90
2022-11-17T22:06:26.666Z,13.30
2022-11-17T22:08:55.668Z,12.15
2022-11-17T22:11:38.168Z,14.43
2022-11-17T22:14:07.313Z,14.00
2022-11-17T22:16:36.342Z,15.85
2022-11-17T22:19:03.728Z,13.68
2022-11-17T22:21:31.187Z,15.18
2022-11-17T22:23:58.399Z,12.85
2022-11-17T22:26:25.680Z,11.23
2022-11-17T22:28:54.373Z,11.32
2022-11-17T22:31:22.871Z,12.18
2022-11-17T22:33:50.758Z,12.25
2022-11-17T22:36:18.826Z,13.38
2022-11-17T22:38:50.092Z,12.82
2022-11-17T22:41:18.134Z,14.00
2022-11-17T22:43:52.240Z,14.57
2022-11-17T22:46:20.249Z,16.65
2022-11-17T22:48:47.966Z,14.15
2022-11-17T22:51:36.140Z,13.45
2022-11-17T22:54:04.007Z,12.80
2022-11-17T22:56:31.396Z,15.40
2022-11-17T22:58:59.976Z,13.48
2022-11-17T23:01:27.787Z,17.63
2022-11-17T23:03:55.022Z,13.95
2022-11-17T23:06:25.028Z,16.20
2022-11-17T23:08:52.084Z,14.02
2022-11-17T23:11:36.688Z,12.43
2022-11-17T23:14:09.588Z,19.15
2022-11-17T23:16:37.872Z,17.92
2022-11-17T23:19:06.396Z,13.73
2022-11-17T23:21:33.628Z,13.93
2022-11-17T23:24:00.817Z,19.77
2022-11-17T23:26:27.886Z,19.55
2022-11-17T23:28:54.968Z,17.58
2022-11-17T23:31:21.979Z,15.70
2022-11-17T23:33:49.204Z,20.13
2022-11-17T23:36:21.699Z,22.48
2022-11-17T23:38:49.916Z,16.75
2022-11-17T23:41:19.502Z,17.30
2022-11-17T23:43:49.719Z,21.38
2022-11-17T23:46:18.932Z,18.50
2022-11-17T23:48:46.371Z,16.92
2022-11-17T23:51:16.476Z,14.18
2022-11-17T23:53:43.784Z,15.18
2022-11-17T23:56:11.326Z,18.38
2022-11-17T23:58:38.566Z,19.50
